createdAt,value
2022-07-29T00:02:16.712Z,7.35
2022-07-29T00:04:43.652Z,7.93
2022-07-29T00:07:10.581Z,7.68
2022-07-29T00:09:50.990Z,6.72
2022-07-29T00:12:25.560Z,6.20
2022-07-29T00:14:55.278Z,5.93
2022-07-29T00:17:22.557Z,8.70
2022-07-29T00:19:49.435Z,7.32
2022-07-29T00:22:16.153Z,7.60
2022-07-29T00:24:42.976Z,6.07
2022-07-29T00:27:09.683Z,5.85
2022-07-29T00:29:36.395Z,6.15
2022-07-29T00:32:03.673Z,6.43
2022-07-29T00:34:49.691Z,8.05
2022-07-29T00:37:16.684Z,6.63
2022-07-29T00:39:43.975Z,7.18
2022-07-29T00:42:10.928Z,8.60
2022-07-29T00:44:42.305Z,6.72
2022-07-29T00:49:36.837Z,6.65
2022-07-29T00:52:05.547Z,8.85
2022-07-29T00:54:33.836Z,6.32
2022-07-29T00:57:01.148Z,7.68
2022-07-29T00:59:34.547Z,5.68
2022-07-29T01:02:05.236Z,6.53
2022-07-29T01:04:32.349Z,7.22
2022-07-29T01:06:59.598Z,6.78
2022-07-29T01:09:45.194Z,5.60
2022-07-29T01:12:27.128Z,6.10
2022-07-29T01:14:55.860Z,7.07
2022-07-29T01:17:33.167Z,5.35
2022-07-29T01:20:07.856Z,5.65
2022-07-29T01:23:13.182Z,6.75
2022-07-29T01:26:20.430Z,9.85
2022-07-29T01:28:59.428Z,6.03
2022-07-29T01:31:36.581Z,6.80
2022-07-29T01:34:09.740Z,6.22
2022-07-29T01:36:44.103Z,5.50
2022-07-29T01:39:26.917Z,5.65
2022-07-29T01:42:10.953Z,6.10
2022-07-29T01:45:04.340Z,5.75
2022-07-29T01:47:38.354Z,6.03
2022-07-29T01:50:09.632Z,5.85
2022-07-29T01:55:14.486Z,5.70
2022-07-29T01:57:43.942Z,7.25
2022-07-29T02:00:11.733Z,6.43
2022-07-29T02:02:42.180Z,6.22
2022-07-29T02:05:12.746Z,6.43
2022-07-29T02:07:42.947Z,5.65
2022-07-29T02:10:11.546Z,5.37
2022-07-29T02:12:39.964Z,6.68
2022-07-29T02:15:08.001Z,6.03
2022-07-29T02:17:46.080Z,5.97
2022-07-29T02:20:13.519Z,6.68
2022-07-29T02:22:42.281Z,6.80
2022-07-29T02:25:14.044Z,6.07
2022-07-29T02:27:42.486Z,6.68
2022-07-29T02:30:11.095Z,6.35
2022-07-29T02:32:40.781Z,5.93
2022-07-29T02:35:09.641Z,6.07
2022-07-29T02:37:37.928Z,4.82
2022-07-29T02:40:07.221Z,9.05
2022-07-29T02:42:37.306Z,6.90
2022-07-29T02:45:05.548Z,7.00
2022-07-29T02:47:41.545Z,5.97
2022-07-29T02:50:36.372Z,7.93
2022-07-29T02:53:13.725Z,6.20
2022-07-29T02:55:58.025Z,8.93
2022-07-29T02:58:33.355Z,5.82
2022-07-29T03:01:08.926Z,8.38
2022-07-29T03:03:39.013Z,5.72
2022-07-29T03:06:07.490Z,7.78
2022-07-29T03:08:35.817Z,7.10
2022-07-29T03:11:03.141Z,6.47
2022-07-29T03:13:30.732Z,6.13
2022-07-29T03:15:58.848Z,6.55
2022-07-29T03:18:26.848Z,6.20
2022-07-29T03:20:54.025Z,4.97
2022-07-29T03:23:23.598Z,6.47
2022-07-29T03:25:54.387Z,8.68
2022-07-29T03:28:21.653Z,7.13
2022-07-29T03:30:49.287Z,6.13
2022-07-29T03:33:16.447Z,6.28
2022-07-29T03:35:43.284Z,5.78
2022-07-29T03:38:09.927Z,6.10
2022-07-29T03:40:44.320Z,7.00
2022-07-29T03:43:12.776Z,7.05
2022-07-29T03:45:42.944Z,7.38
2022-07-29T03:48:13.786Z,7.97
2022-07-29T03:50:40.984Z,5.57
2022-07-29T03:53:08.694Z,6.15
2022-07-29T03:55:42.050Z,5.72
2022-07-29T03:58:09.771Z,7.07
2022-07-29T04:00:38.480Z,7.35
2022-07-29T04:03:06.051Z,6.20
2022-07-29T04:05:38.002Z,7.25
2022-07-29T04:08:04.904Z,8.88
2022-07-29T04:10:34.029Z,9.27
2022-07-29T04:13:02.414Z,9.27
2022-07-29T04:15:31.536Z,9.10
2022-07-29T04:17:59.699Z,9.75
2022-07-29T04:20:26.827Z,6.15
2022-07-29T04:22:53.491Z,6.85
2022-07-29T04:25:20.186Z,7.05
2022-07-29T04:28:02.254Z,7.07
2022-07-29T04:30:29.963Z,8.77
2022-07-29T04:32:56.738Z,6.18
2022-07-29T04:35:23.518Z,10.18
2022-07-29T04:37:50.277Z,5.72
2022-07-29T04:40:17.071Z,6.65
2022-07-29T04:42:47.248Z,6.60
2022-07-29T04:45:15.243Z,7.38
2022-07-29T04:47:42.924Z,7.45
2022-07-29T04:50:10.688Z,7.15
2022-07-29T04:52:37.954Z,8.07
2022-07-29T04:55:06.525Z,6.38
2022-07-29T04:57:33.304Z,6.03
2022-07-29T05:00:00.083Z,8.27
2022-07-29T05:02:26.848Z,10.05
2022-07-29T05:04:53.741Z,7.03
2022-07-29T05:07:20.726Z,7.88
2022-07-29T05:09:48.310Z,8.70
2022-07-29T05:12:14.925Z,7.20
2022-07-29T05:14:41.658Z,8.52
2022-07-29T05:17:08.556Z,6.95
2022-07-29T05:19:39.332Z,5.90
2022-07-29T05:22:06.952Z,5.28
2022-07-29T05:24:33.711Z,7.88
2022-07-29T05:27:00.701Z,7.97
2022-07-29T05:29:44.194Z,6.70
2022-07-29T05:32:13.435Z,7.28
2022-07-29T05:34:51.202Z,6.57
2022-07-29T05:37:21.565Z,9.88
2022-07-29T05:39:50.411Z,10.25
2022-07-29T05:42:23.150Z,10.00
2022-07-29T05:44:49.960Z,10.65
2022-07-29T05:47:16.994Z,9.65
2022-07-29T05:49:44.184Z,7.97
2022-07-29T05:52:11.133Z,9.35
2022-07-29T05:54:37.845Z,7.03
2022-07-29T05:57:04.672Z,8.20
2022-07-29T05:59:31.369Z,8.57
2022-07-29T06:01:58.675Z,7.03
2022-07-29T06:04:25.851Z,7.90
2022-07-29T06:06:52.840Z,7.72
2022-07-29T06:09:19.689Z,7.22
2022-07-29T06:11:46.404Z,8.45
2022-07-29T06:14:13.262Z,5.93
2022-07-29T06:16:40.198Z,9.15
2022-07-29T06:19:07.260Z,8.30
2022-07-29T06:21:34.596Z,7.78
2022-07-29T06:24:05.955Z,6.88
2022-07-29T06:26:35.302Z,9.13
2022-07-29T06:29:06.882Z,9.20
2022-07-29T06:31:33.764Z,7.90
2022-07-29T06:34:00.913Z,7.30
2022-07-29T06:36:28.016Z,7.25
2022-07-29T06:38:54.664Z,8.10
2022-07-29T06:41:23.986Z,5.95
2022-07-29T06:43:54.551Z,7.07
2022-07-29T06:46:24.047Z,7.07
2022-07-29T06:48:52.577Z,5.55
2022-07-29T06:51:22.816Z,6.50
2022-07-29T06:54:00.217Z,7.10
2022-07-29T06:56:38.193Z,6.95
2022-07-29T06:59:10.240Z,6.93
2022-07-29T07:01:38.618Z,6.57
2022-07-29T07:04:05.419Z,6.45
2022-07-29T07:06:32.165Z,8.20
2022-07-29T07:08:58.917Z,8.65
2022-07-29T07:11:25.925Z,7.85
2022-07-29T07:13:52.628Z,6.10
2022-07-29T07:16:19.469Z,9.60
2022-07-29T07:18:46.474Z,8.45
2022-07-29T07:21:18.894Z,6.78
2022-07-29T07:23:47.062Z,8.13
2022-07-29T07:26:13.817Z,5.72
2022-07-29T07:28:40.491Z,7.35
2022-07-29T07:31:07.334Z,6.03
2022-07-29T07:33:34.035Z,6.45
2022-07-29T07:36:00.772Z,4.90
2022-07-29T07:38:27.600Z,5.78
2022-07-29T07:40:55.568Z,6.45
2022-07-29T07:43:22.871Z,6.45
2022-07-29T07:45:49.621Z,6.20
2022-07-29T07:48:16.389Z,6.47
2022-07-29T07:50:44.590Z,8.07
2022-07-29T07:53:11.772Z,6.47
2022-07-29T07:58:30.256Z,6.70
2022-07-29T08:00:56.998Z,6.57
2022-07-29T08:03:23.667Z,6.35
2022-07-29T08:05:52.652Z,7.57
2022-07-29T08:08:19.456Z,7.20
2022-07-29T08:11:00.619Z,5.72
2022-07-29T08:13:31.184Z,7.65
2022-07-29T08:15:59.167Z,8.05
2022-07-29T08:18:31.115Z,7.88
2022-07-29T08:20:59.569Z,5.15
2022-07-29T08:23:32.978Z,5.13
2022-07-29T08:26:13.855Z,5.28
2022-07-29T08:28:42.615Z,6.00
2022-07-29T08:31:09.273Z,4.97
2022-07-29T08:33:35.968Z,7.82
2022-07-29T08:36:02.735Z,7.28
2022-07-29T08:38:29.388Z,5.07
2022-07-29T08:40:56.577Z,6.30
2022-07-29T08:43:23.835Z,5.85
2022-07-29T08:45:52.073Z,5.43
2022-07-29T08:48:22.275Z,5.05
2022-07-29T08:50:53.296Z,6.25
2022-07-29T08:55:49.069Z,5.95
2022-07-29T08:58:17.750Z,10.20
2022-07-29T09:00:54.137Z,7.85
2022-07-29T09:03:25.213Z,9.25
2022-07-29T09:05:52.843Z,5.68
2022-07-29T09:08:20.988Z,5.50
2022-07-29T09:10:48.103Z,6.57
2022-07-29T09:13:14.813Z,6.45
2022-07-29T09:15:41.589Z,6.53
2022-07-29T09:18:08.278Z,4.88
2022-07-29T09:21:13.708Z,5.85
2022-07-29T09:23:42.593Z,9.32
2022-07-29T09:26:09.356Z,5.35
2022-07-29T09:28:43.470Z,5.72
2022-07-29T09:31:10.357Z,4.45
2022-07-29T09:33:40.073Z,10.65
2022-07-29T09:36:10.806Z,4.95
2022-07-29T09:38:38.267Z,3.85
2022-07-29T09:41:06.824Z,5.53
2022-07-29T09:43:35.061Z,10.20
2022-07-29T09:46:12.893Z,5.18
2022-07-29T09:48:39.760Z,6.40
2022-07-29T09:51:07.427Z,4.78
2022-07-29T09:53:38.575Z,3.88
2022-07-29T09:56:06.139Z,4.57
2022-07-29T09:58:36.518Z,4.75
2022-07-29T10:01:04.176Z,3.90
2022-07-29T10:03:31.079Z,4.80
2022-07-29T10:06:11.560Z,5.47
2022-07-29T10:08:39.089Z,5.45
2022-07-29T10:11:11.875Z,5.35
2022-07-29T10:13:39.289Z,5.65
2022-07-29T10:16:07.230Z,5.22
2022-07-29T10:18:34.818Z,4.93
2022-07-29T10:21:02.176Z,4.78
2022-07-29T10:23:30.848Z,4.53
2022-07-29T10:26:15.583Z,4.60
2022-07-29T10:28:42.572Z,5.13
2022-07-29T10:31:32.804Z,4.43
2022-07-29T10:34:26.415Z,5.07
2022-07-29T10:37:15.252Z,4.95
2022-07-29T10:39:51.179Z,5.22
2022-07-29T10:42:29.782Z,5.32
2022-07-29T10:45:04.606Z,4.25
2022-07-29T10:47:31.773Z,4.97
2022-07-29T10:50:01.127Z,4.72
2022-07-29T10:52:58.395Z,5.40
2022-07-29T10:55:43.725Z,5.88
2022-07-29T10:58:15.344Z,5.38
2022-07-29T11:00:42.149Z,5.93
2022-07-29T11:03:50.277Z,6.43
2022-07-29T11:06:26.278Z,6.03
2022-07-29T11:09:20.121Z,6.75
2022-07-29T11:11:52.284Z,4.32
2022-07-29T11:14:59.999Z,5.22
2022-07-29T11:17:26.982Z,7.90
2022-07-29T11:20:32.283Z,6.40
2022-07-29T11:22:59.568Z,8.10
2022-07-29T11:25:50.866Z,5.72
2022-07-29T11:28:23.124Z,8.20
2022-07-29T11:31:11.787Z,9.05
2022-07-29T11:33:55.842Z,6.88
2022-07-29T11:36:28.090Z,9.13
2022-07-29T11:39:37.059Z,6.13
2022-07-29T11:42:32.490Z,5.53
2022-07-29T11:45:41.415Z,5.40
2022-07-29T11:48:32.082Z,4.90
2022-07-29T11:50:53.658Z,8.05
2022-07-29T11:53:20.924Z,5.55
2022-07-29T11:55:55.466Z,5.05
2022-07-29T11:58:27.068Z,4.43
2022-07-29T12:00:55.164Z,4.53
2022-07-29T12:03:32.806Z,5.60
2022-07-29T12:06:02.743Z,6.72
2022-07-29T12:08:30.403Z,5.18
2022-07-29T12:10:57.180Z,5.88
2022-07-29T12:13:37.709Z,4.10
2022-07-29T12:16:05.332Z,4.05
2022-07-29T12:18:32.750Z,4.63
2022-07-29T12:21:03.396Z,4.10
2022-07-29T12:26:07.499Z,5.00
2022-07-29T12:28:39.329Z,5.05
2022-07-29T12:31:06.199Z,5.10
2022-07-29T12:33:35.892Z,5.22
2022-07-29T12:36:10.457Z,5.03
2022-07-29T12:38:41.941Z,5.00
2022-07-29T12:41:08.813Z,4.63
2022-07-29T12:43:35.553Z,7.22
2022-07-29T12:46:13.781Z,5.63
2022-07-29T12:48:42.774Z,4.75
2022-07-29T12:51:11.058Z,5.43
2022-07-29T12:53:38.237Z,7.78
2022-07-29T12:56:20.800Z,4.75
2022-07-29T12:58:53.415Z,4.55
2022-07-29T13:01:21.738Z,7.57
2022-07-29T13:04:01.460Z,6.82
2022-07-29T13:06:28.725Z,5.68
2022-07-29T13:09:06.642Z,4.55
2022-07-29T13:11:54.137Z,6.32
2022-07-29T13:14:53.480Z,8.80
2022-07-29T13:17:23.982Z,5.30
2022-07-29T13:34:12.050Z,6.80
2022-07-29T13:36:41.549Z,6.78
2022-07-29T13:39:08.457Z,6.43
2022-07-29T13:41:35.084Z,4.57
2022-07-29T13:44:01.713Z,5.75
2022-07-29T13:46:28.509Z,5.95
2022-07-29T13:48:55.258Z,5.70
2022-07-29T13:51:22.061Z,5.57
2022-07-29T13:53:48.714Z,8.30
2022-07-29T13:56:15.469Z,6.40
2022-07-29T13:58:42.238Z,7.25
2022-07-29T14:01:09.898Z,7.10
2022-07-29T14:03:39.207Z,5.75
2022-07-29T14:06:06.936Z,6.85
2022-07-29T14:08:33.712Z,10.00
2022-07-29T14:11:00.345Z,9.75
2022-07-29T14:13:27.236Z,6.43
2022-07-29T14:15:54.029Z,6.00
2022-07-29T14:18:20.672Z,8.88
2022-07-29T14:20:47.281Z,5.45
2022-07-29T14:23:14.358Z,6.05
2022-07-29T14:25:43.148Z,5.43
2022-07-29T14:28:11.280Z,6.88
2022-07-29T14:30:38.561Z,6.20
2022-07-29T14:33:05.343Z,5.97
2022-07-29T14:35:32.024Z,5.72
2022-07-29T14:37:58.767Z,5.10
2022-07-29T14:40:26.627Z,4.22
2022-07-29T14:42:53.486Z,4.25
2022-07-29T14:45:20.247Z,3.00
2022-07-29T14:47:46.943Z,2.78
2022-07-29T14:50:14.440Z,5.38
2022-07-29T14:52:41.165Z,7.22
2022-07-29T14:55:16.592Z,4.65
2022-07-29T14:57:47.376Z,4.22
2022-07-29T15:00:14.462Z,4.95
2022-07-29T15:03:00.784Z,3.20
2022-07-29T15:05:27.881Z,5.57
2022-07-29T15:07:54.623Z,6.57
2022-07-29T15:10:22.166Z,4.80
2022-07-29T15:12:51.572Z,6.30
2022-07-29T15:15:18.176Z,6.72
2022-07-29T15:17:44.861Z,4.03
2022-07-29T15:20:12.681Z,6.90
2022-07-29T15:22:40.124Z,8.50
2022-07-29T15:25:07.402Z,5.32
2022-07-29T15:27:34.401Z,6.53
2022-07-29T15:30:01.018Z,4.85
2022-07-29T15:32:28.041Z,4.88
2022-07-29T15:34:54.781Z,6.07
2022-07-29T15:37:21.490Z,6.82
2022-07-29T15:39:48.112Z,5.65
2022-07-29T15:42:14.786Z,4.85
2022-07-29T15:44:44.410Z,4.60
2022-07-29T15:47:10.998Z,4.13
2022-07-29T15:49:47.339Z,4.97
2022-07-29T15:52:19.398Z,4.05
2022-07-29T15:54:52.197Z,5.40
2022-07-29T15:57:18.921Z,4.35
2022-07-29T15:59:45.854Z,5.38
2022-07-29T16:02:12.679Z,3.83
2022-07-29T16:04:39.526Z,6.43
2022-07-29T16:07:06.260Z,3.50
2022-07-29T16:09:33.306Z,4.30
2022-07-29T16:11:59.915Z,4.38
2022-07-29T16:14:28.276Z,3.88
2022-07-29T16:16:56.433Z,3.75
2022-07-29T16:19:23.503Z,4.35
2022-07-29T16:21:50.120Z,5.93
2022-07-29T16:24:16.912Z,4.82
2022-07-29T16:26:43.520Z,2.90
2022-07-29T16:29:10.294Z,3.38
2022-07-29T16:31:37.211Z,2.80
2022-07-29T16:34:03.935Z,2.78
2022-07-29T16:36:30.532Z,3.08
2022-07-29T16:38:57.394Z,2.35
2022-07-29T16:41:24.154Z,2.10
2022-07-29T16:43:50.755Z,2.90
2022-07-29T16:46:18.796Z,3.22
2022-07-29T16:48:46.248Z,3.22
2022-07-29T16:51:14.262Z,5.15
2022-07-29T16:53:41.758Z,3.55
2022-07-29T16:56:11.833Z,4.00
2022-07-29T16:58:43.539Z,2.67
2022-07-29T17:01:11.323Z,2.42
2022-07-29T17:04:00.227Z,3.60
2022-07-29T17:06:29.655Z,4.13
2022-07-29T17:08:56.923Z,3.40
2022-07-29T17:11:51.543Z,2.38
2022-07-29T17:14:10.953Z,3.03
2022-07-29T17:16:37.658Z,2.30
2022-07-29T17:19:04.820Z,2.70
2022-07-29T17:21:31.585Z,2.92
2022-07-29T17:23:59.431Z,2.22
2022-07-29T17:26:28.032Z,2.55
2022-07-29T17:28:55.385Z,3.25
2022-07-29T17:31:22.411Z,3.30
2022-07-29T17:33:49.217Z,3.47
2022-07-29T17:36:24.901Z,2.50
2022-07-29T17:38:52.883Z,3.25
2022-07-29T17:41:21.088Z,2.55
2022-07-29T17:43:48.759Z,2.05
2022-07-29T17:46:16.239Z,2.33
2022-07-29T17:48:43.169Z,2.15
2022-07-29T17:51:10.088Z,2.85
2022-07-29T17:53:37.592Z,1.95
2022-07-29T17:56:05.592Z,3.10
2022-07-29T17:58:33.275Z,2.22
2022-07-29T18:01:00.362Z,3.38
2022-07-29T18:03:27.437Z,2.15
2022-07-29T18:05:54.243Z,4.35
2022-07-29T18:08:21.072Z,4.10
2022-07-29T18:10:47.876Z,2.75
2022-07-29T18:13:16.276Z,2.17
2022-07-29T18:15:45.127Z,3.05
2022-07-29T18:18:13.563Z,2.88
2022-07-29T18:20:41.161Z,2.97
2022-07-29T18:23:07.833Z,3.33
2022-07-29T18:25:34.860Z,2.92
2022-07-29T18:28:01.605Z,2.42
2022-07-29T18:30:29.600Z,3.90
2022-07-29T18:33:19.611Z,2.90
2022-07-29T18:35:44.704Z,2.38
2022-07-29T18:38:11.427Z,2.20
2022-07-29T18:40:40.005Z,3.25
2022-07-29T18:43:07.398Z,3.45
2022-07-29T18:45:34.775Z,3.35
2022-07-29T18:48:02.380Z,2.55
2022-07-29T18:50:30.036Z,2.80
2022-07-29T18:52:59.028Z,2.35
2022-07-29T18:55:26.505Z,3.40
2022-07-29T18:57:55.883Z,3.25
2022-07-29T19:00:23.988Z,2.75
2022-07-29T19:02:51.106Z,3.80
2022-07-29T19:05:18.283Z,3.75
2022-07-29T19:07:45.151Z,3.55
2022-07-29T19:10:12.210Z,4.65
2022-07-29T19:12:39.134Z,4.25
2022-07-29T19:15:07.509Z,3.22
2022-07-29T19:17:34.252Z,3.83
2022-07-29T19:20:01.008Z,5.72
2022-07-29T19:22:27.746Z,3.70
2022-07-29T19:24:54.475Z,2.78
2022-07-29T19:27:21.145Z,3.10
2022-07-29T19:29:47.814Z,3.75
2022-07-29T19:32:14.621Z,3.50
2022-07-29T19:35:11.108Z,2.80
2022-07-29T19:37:37.827Z,2.45
2022-07-29T19:40:06.285Z,2.97
2022-07-29T19:42:33.025Z,3.58
2022-07-29T19:44:59.951Z,4.22
2022-07-29T19:47:26.684Z,4.03
2022-07-29T19:49:53.301Z,3.38
2022-07-29T19:52:20.015Z,2.85
2022-07-29T19:54:46.713Z,4.15
2022-07-29T19:57:13.483Z,4.22
2022-07-29T19:59:41.246Z,2.70
2022-07-29T20:02:11.029Z,3.42
2022-07-29T20:04:38.593Z,3.35
2022-07-29T20:07:06.617Z,4.03
2022-07-29T20:09:34.276Z,3.95
2022-07-29T20:12:00.952Z,3.38
2022-07-29T20:14:27.626Z,3.03
2022-07-29T20:16:54.390Z,3.83
2022-07-29T20:19:21.481Z,3.88
2022-07-29T20:21:48.197Z,3.55
2022-07-29T20:24:14.944Z,4.40
2022-07-29T20:26:41.834Z,3.55
2022-07-29T20:29:09.044Z,2.75
2022-07-29T20:31:36.317Z,2.95
2022-07-29T20:34:03.407Z,3.80
2022-07-29T20:36:30.451Z,4.55
2022-07-29T20:38:57.254Z,3.97
2022-07-29T20:41:23.871Z,3.95
2022-07-29T20:43:50.531Z,4.95
2022-07-29T20:46:18.125Z,3.40
2022-07-29T20:48:46.907Z,4.28
2022-07-29T20:51:14.433Z,4.00
2022-07-29T20:53:41.830Z,3.70
2022-07-29T20:56:08.792Z,3.42
2022-07-29T20:58:36.376Z,4.38
2022-07-29T21:01:03.604Z,5.07
2022-07-29T21:03:30.475Z,4.43
2022-07-29T21:05:57.244Z,3.90
2022-07-29T21:08:24.051Z,5.28
2022-07-29T21:10:50.800Z,5.78
2022-07-29T21:13:18.507Z,6.53
2022-07-29T21:15:49.152Z,5.28
2022-07-29T21:18:27.385Z,6.43
2022-07-29T21:20:55.032Z,3.95
2022-07-29T21:23:21.986Z,3.70
2022-07-29T21:25:48.769Z,6.03
2022-07-29T21:28:28.925Z,5.72
2022-07-29T21:31:00.865Z,5.82
2022-07-29T21:33:29.223Z,9.95
2022-07-29T21:36:46.057Z,4.18
2022-07-29T21:38:42.787Z,5.22
2022-07-29T21:41:12.057Z,4.90
2022-07-29T21:43:41.885Z,5.70
2022-07-29T21:46:09.246Z,4.72
2022-07-29T21:48:36.135Z,7.95
2022-07-29T21:51:02.942Z,4.85
2022-07-29T21:53:30.668Z,4.35
2022-07-29T21:55:57.431Z,6.32
2022-07-29T21:58:24.634Z,5.93
2022-07-29T22:00:51.681Z,4.38
2022-07-29T22:03:18.441Z,4.25
2022-07-29T22:05:45.249Z,5.13
2022-07-29T22:08:12.049Z,8.25
2022-07-29T22:10:38.697Z,7.57
2022-07-29T22:13:05.708Z,6.97
2022-07-29T22:15:32.424Z,5.30
2022-07-29T22:17:59.624Z,4.88
2022-07-29T22:20:26.509Z,5.88
2022-07-29T22:22:53.311Z,7.13
2022-07-29T22:25:20.807Z,4.28
2022-07-29T22:27:47.751Z,4.72
2022-07-29T22:30:14.904Z,4.53
2022-07-29T22:32:41.926Z,5.72
2022-07-29T22:35:09.292Z,5.90
2022-07-29T22:37:36.036Z,5.05
2022-07-29T22:40:03.004Z,4.63
2022-07-29T22:42:30.337Z,5.53
2022-07-29T22:44:57.044Z,8.40
2022-07-29T22:47:45.912Z,7.22
2022-07-29T22:50:10.600Z,7.78
2022-07-29T22:52:37.265Z,7.78
2022-07-29T22:55:05.260Z,5.05
2022-07-29T22:57:32.401Z,6.15
2022-07-29T23:00:01.602Z,5.82
2022-07-29T23:02:29.102Z,5.47
2022-07-29T23:04:55.849Z,6.35
2022-07-29T23:07:23.026Z,5.25
2022-07-29T23:09:50.124Z,6.05
2022-07-29T23:12:16.763Z,6.38
2022-07-29T23:14:43.940Z,5.30
2022-07-29T23:17:10.615Z,4.03
2022-07-29T23:19:37.295Z,5.03
2022-07-29T23:22:04.779Z,5.00
2022-07-29T23:24:31.489Z,6.13
2022-07-29T23:26:58.610Z,7.22
2022-07-29T23:29:26.152Z,6.35
2022-07-29T23:31:52.737Z,4.70
2022-07-29T23:34:19.356Z,3.58
2022-07-29T23:36:46.069Z,5.18
2022-07-29T23:39:13.265Z,5.63
2022-07-29T23:41:40.193Z,7.22
2022-07-29T23:44:07.232Z,7.18
2022-07-29T23:46:34.139Z,5.25
2022-07-29T23:49:01.019Z,7.28
2022-07-29T23:51:29.056Z,6.07
2022-07-29T23:53:55.948Z,5.63
2022-07-29T23:56:23.052Z,5.72
2022-07-29T23:58:49.836Z,7.10
